Terminal Aerodrome Forecast
Issued by NWS Austin/San Antonio, TX

Home | Current Version | Previous Version | Text Only | Print | Product List | Glossary On
Versions: 1 2 3 4 5 6 7 8 9 10 11 12 13 14 15 16 17 18 19 20 21 22 23 24
891
FTUS44 KEWX 212339
TAFSAT
TAF
KSAT 212339Z 2200/2306 15010KT P6SM FEW050 SCT160 SCT250
     FM220800 17006KT P6SM BKN020
     FM221100 22005KT 4SM TSRA BKN015CB
     FM221300 32011KT P6SM SCT040
     FM221500 36015G25KT P6SM FEW050
     FM222200 02009KT P6SM SKC=

USA.gov is the U.S. government's official web portal to all federal, state and local government web resources and services.